sensor_id;sensor_type;location;lat;lon;timestamp;P1;durP1;ratioP1;P2;durP2;ratioP2
13032;SDS011;6583;42.632;23.298;2023-07-20T00:00:02;5.22;;;3.13;;
13032;SDS011;6583;42.632;23.298;2023-07-20T00:02:30;6.65;;;3.47;;
13032;SDS011;6583;42.632;23.298;2023-07-20T00:04:57;6.30;;;3.70;;
13032;SDS011;6583;42.632;23.298;2023-07-20T00:07:25;6.82;;;3.10;;
13032;SDS011;6583;42.632;23.298;2023-07-20T00:09:51;6.30;;;3.47;;
13032;SDS011;6583;42.632;23.298;2023-07-20T00:12:18;7.20;;;3.55;;
13032;SDS011;6583;42.632;23.298;2023-07-20T00:14:46;5.88;;;3.47;;
13032;SDS011;6583;42.632;23.298;2023-07-20T00:17:13;3.97;;;3.10;;
13032;SDS011;6583;42.632;23.298;2023-07-20T00:19:39;8.77;;;3.67;;
13032;SDS011;6583;42.632;23.298;2023-07-20T00:22:06;5.38;;;3.40;;
13032;SDS011;6583;42.632;23.298;2023-07-20T00:24:32;7.03;;;3.60;;
13032;SDS011;6583;42.632;23.298;2023-07-20T00:26:59;7.93;;;3.65;;
13032;SDS011;6583;42.632;23.298;2023-07-20T00:29:27;4.75;;;3.13;;
13032;SDS011;6583;42.632;23.298;2023-07-20T00:31:55;7.30;;;3.50;;
13032;SDS011;6583;42.632;23.298;2023-07-20T00:34:22;7.68;;;3.65;;
13032;SDS011;6583;42.632;23.298;2023-07-20T00:36:49;7.20;;;3.72;;
13032;SDS011;6583;42.632;23.298;2023-07-20T00:39:15;5.90;;;3.42;;
13032;SDS011;6583;42.632;23.298;2023-07-20T00:41:42;6.80;;;3.55;;
13032;SDS011;6583;42.632;23.298;2023-07-20T00:44:09;7.22;;;3.67;;
13032;SDS011;6583;42.632;23.298;2023-07-20T00:46:35;6.40;;;3.30;;
13032;SDS011;6583;42.632;23.298;2023-07-20T00:49:03;6.20;;;3.30;;
13032;SDS011;6583;42.632;23.298;2023-07-20T00:51:31;5.97;;;3.38;;
13032;SDS011;6583;42.632;23.298;2023-07-20T00:53:58;5.47;;;3.58;;
13032;SDS011;6583;42.632;23.298;2023-07-20T00:56:25;6.13;;;3.50;;
13032;SDS011;6583;42.632;23.298;2023-07-20T00:58:52;4.90;;;3.60;;
13032;SDS011;6583;42.632;23.298;2023-07-20T01:01:18;7.35;;;3.97;;
13032;SDS011;6583;42.632;23.298;2023-07-20T01:03:45;5.10;;;4.00;;
13032;SDS011;6583;42.632;23.298;2023-07-20T01:06:18;7.25;;;3.75;;
13032;SDS011;6583;42.632;23.298;2023-07-20T01:08:58;6.65;;;3.35;;
13032;SDS011;6583;42.632;23.298;2023-07-20T01:11:35;8.48;;;3.38;;
13032;SDS011;6583;42.632;23.298;2023-07-20T01:14:05;6.47;;;3.50;;
13032;SDS011;6583;42.632;23.298;2023-07-20T01:16:32;7.68;;;3.58;;
13032;SDS011;6583;42.632;23.298;2023-07-20T01:18:59;9.15;;;3.63;;
13032;SDS011;6583;42.632;23.298;2023-07-20T01:21:30;5.07;;;3.47;;
13032;SDS011;6583;42.632;23.298;2023-07-20T01:30:17;5.20;;;3.13;;
13032;SDS011;6583;42.632;23.298;2023-07-20T01:33:03;6.53;;;3.63;;
13032;SDS011;6583;42.632;23.298;2023-07-20T01:35:32;7.53;;;3.45;;
13032;SDS011;6583;42.632;23.298;2023-07-20T01:38:00;6.40;;;3.65;;
13032;SDS011;6583;42.632;23.298;2023-07-20T01:40:28;5.10;;;3.30;;
13032;SDS011;6583;42.632;23.298;2023-07-20T01:42:55;5.05;;;3.30;;
13032;SDS011;6583;42.632;23.298;2023-07-20T01:45:22;7.03;;;3.90;;
13032;SDS011;6583;42.632;23.298;2023-07-20T01:47:48;6.05;;;4.10;;
13032;SDS011;6583;42.632;23.298;2023-07-20T01:50:16;5.85;;;3.50;;
13032;SDS011;6583;42.632;23.298;2023-07-20T01:52:43;8.02;;;3.67;;
13032;SDS011;6583;42.632;23.298;2023-07-20T01:55:10;5.60;;;3.33;;
13032;SDS011;6583;42.632;23.298;2023-07-20T01:57:37;9.00;;;3.60;;
13032;SDS011;6583;42.632;23.298;2023-07-20T02:00:04;7.38;;;3.45;;
13032;SDS011;6583;42.632;23.298;2023-07-20T02:02:32;5.00;;;3.55;;
13032;SDS011;6583;42.632;23.298;2023-07-20T02:04:58;4.97;;;3.58;;
13032;SDS011;6583;42.632;23.298;2023-07-20T02:07:26;5.55;;;3.15;;
13032;SDS011;6583;42.632;23.298;2023-07-20T02:09:53;7.68;;;3.45;;
13032;SDS011;6583;42.632;23.298;2023-07-20T02:12:19;6.15;;;3.70;;
13032;SDS011;6583;42.632;23.298;2023-07-20T02:14:46;7.28;;;3.42;;
13032;SDS011;6583;42.632;23.298;2023-07-20T02:17:13;6.82;;;3.60;;
13032;SDS011;6583;42.632;23.298;2023-07-20T02:19:40;7.35;;;3.53;;
13032;SDS011;6583;42.632;23.298;2023-07-20T02:22:07;7.88;;;3.58;;
13032;SDS011;6583;42.632;23.298;2023-07-20T02:24:35;5.75;;;3.28;;
13032;SDS011;6583;42.632;23.298;2023-07-20T02:27:02;4.22;;;3.22;;
13032;SDS011;6583;42.632;23.298;2023-07-20T02:29:29;6.97;;;3.20;;
13032;SDS011;6583;42.632;23.298;2023-07-20T02:31:55;6.82;;;3.45;;
13032;SDS011;6583;42.632;23.298;2023-07-20T02:34:22;6.88;;;3.42;;
13032;SDS011;6583;42.632;23.298;2023-07-20T02:36:49;5.97;;;3.28;;
13032;SDS011;6583;42.632;23.298;2023-07-20T02:39:15;6.55;;;3.30;;
13032;SDS011;6583;42.632;23.298;2023-07-20T02:41:43;5.72;;;3.47;;
13032;SDS011;6583;42.632;23.298;2023-07-20T02:44:10;4.72;;;3.45;;
13032;SDS011;6583;42.632;23.298;2023-07-20T02:46:37;10.70;;;3.70;;
13032;SDS011;6583;42.632;23.298;2023-07-20T02:49:04;5.38;;;3.35;;
13032;SDS011;6583;42.632;23.298;2023-07-20T02:51:30;6.28;;;3.30;;
13032;SDS011;6583;42.632;23.298;2023-07-20T02:53:57;6.47;;;3.10;;
13032;SDS011;6583;42.632;23.298;2023-07-20T02:56:24;4.97;;;3.30;;
13032;SDS011;6583;42.632;23.298;2023-07-20T02:58:52;6.65;;;3.42;;
13032;SDS011;6583;42.632;23.298;2023-07-20T03:01:18;7.15;;;3.28;;
13032;SDS011;6583;42.632;23.298;2023-07-20T03:03:44;6.07;;;3.40;;
13032;SDS011;6583;42.632;23.298;2023-07-20T03:06:11;6.53;;;3.03;;
13032;SDS011;6583;42.632;23.298;2023-07-20T03:08:39;14.70;;;3.63;;
13032;SDS011;6583;42.632;23.298;2023-07-20T03:11:06;6.78;;;3.50;;
13032;SDS011;6583;42.632;23.298;2023-07-20T03:13:33;6.00;;;3.10;;
13032;SDS011;6583;42.632;23.298;2023-07-20T03:16:01;6.85;;;3.47;;
13032;SDS011;6583;42.632;23.298;2023-07-20T03:18:36;6.38;;;3.30;;
13032;SDS011;6583;42.632;23.298;2023-07-20T03:21:03;6.30;;;3.17;;
13032;SDS011;6583;42.632;23.298;2023-07-20T03:23:29;8.52;;;3.50;;
13032;SDS011;6583;42.632;23.298;2023-07-20T03:25:56;7.03;;;3.53;;
13032;SDS011;6583;42.632;23.298;2023-07-20T03:28:22;5.85;;;3.53;;
13032;SDS011;6583;42.632;23.298;2023-07-20T03:30:52;13.25;;;3.88;;
13032;SDS011;6583;42.632;23.298;2023-07-20T03:33:20;5.32;;;3.35;;
13032;SDS011;6583;42.632;23.298;2023-07-20T03:35:48;6.65;;;3.10;;
13032;SDS011;6583;42.632;23.298;2023-07-20T03:38:14;8.75;;;3.25;;
13032;SDS011;6583;42.632;23.298;2023-07-20T03:40:48;5.45;;;3.00;;
13032;SDS011;6583;42.632;23.298;2023-07-20T03:43:15;7.18;;;3.30;;
13032;SDS011;6583;42.632;23.298;2023-07-20T03:45:42;5.65;;;3.15;;
13032;SDS011;6583;42.632;23.298;2023-07-20T03:48:09;9.00;;;3.80;;
13032;SDS011;6583;42.632;23.298;2023-07-20T03:50:37;5.60;;;3.38;;
13032;SDS011;6583;42.632;23.298;2023-07-20T03:53:04;5.38;;;3.05;;
13032;SDS011;6583;42.632;23.298;2023-07-20T03:55:30;6.55;;;3.40;;
13032;SDS011;6583;42.632;23.298;2023-07-20T03:57:57;7.47;;;2.88;;
13032;SDS011;6583;42.632;23.298;2023-07-20T04:00:24;5.55;;;3.45;;
13032;SDS011;6583;42.632;23.298;2023-07-20T04:02:50;7.53;;;3.22;;
13032;SDS011;6583;42.632;23.298;2023-07-20T04:05:18;6.75;;;3.03;;
13032;SDS011;6583;42.632;23.298;2023-07-20T04:07:46;4.57;;;2.70;;
13032;SDS011;6583;42.632;23.298;2023-07-20T04:10:13;6.65;;;3.42;;
13032;SDS011;6583;42.632;23.298;2023-07-20T04:12:39;6.88;;;3.15;;
13032;SDS011;6583;42.632;23.298;2023-07-20T04:15:06;5.95;;;3.00;;
13032;SDS011;6583;42.632;23.298;2023-07-20T04:17:34;6.88;;;3.60;;
13032;SDS011;6583;42.632;23.298;2023-07-20T04:20:00;7.78;;;3.60;;
13032;SDS011;6583;42.632;23.298;2023-07-20T04:22:28;7.85;;;3.28;;
13032;SDS011;6583;42.632;23.298;2023-07-20T04:24:56;6.97;;;3.65;;
13032;SDS011;6583;42.632;23.298;2023-07-20T04:27:23;9.02;;;3.67;;
13032;SDS011;6583;42.632;23.298;2023-07-20T04:29:49;7.25;;;3.60;;
13032;SDS011;6583;42.632;23.298;2023-07-20T04:32:16;12.35;;;3.72;;
13032;SDS011;6583;42.632;23.298;2023-07-20T04:34:43;10.43;;;3.85;;
13032;SDS011;6583;42.632;23.298;2023-07-20T04:37:09;9.20;;;3.78;;
13032;SDS011;6583;42.632;23.298;2023-07-20T04:39:36;7.95;;;3.55;;
13032;SDS011;6583;42.632;23.298;2023-07-20T04:42:04;6.90;;;3.60;;
13032;SDS011;6583;42.632;23.298;2023-07-20T04:44:31;7.80;;;3.78;;
13032;SDS011;6583;42.632;23.298;2023-07-20T04:46:58;7.28;;;3.33;;
13032;SDS011;6583;42.632;23.298;2023-07-20T04:49:24;8.52;;;3.75;;
13032;SDS011;6583;42.632;23.298;2023-07-20T04:51:51;6.57;;;3.80;;
13032;SDS011;6583;42.632;23.298;2023-07-20T04:54:18;10.45;;;3.95;;
13032;SDS011;6583;42.632;23.298;2023-07-20T04:56:44;4.78;;;3.42;;
13032;SDS011;6583;42.632;23.298;2023-07-20T04:59:12;8.50;;;3.83;;
13032;SDS011;6583;42.632;23.298;2023-07-20T05:01:39;10.27;;;3.63;;
13032;SDS011;6583;42.632;23.298;2023-07-20T05:04:06;8.65;;;3.35;;
13032;SDS011;6583;42.632;23.298;2023-07-20T05:06:33;12.65;;;4.10;;
13032;SDS011;6583;42.632;23.298;2023-07-20T05:09:00;6.28;;;3.72;;
13032;SDS011;6583;42.632;23.298;2023-07-20T05:11:26;9.60;;;3.78;;
13032;SDS011;6583;42.632;23.298;2023-07-20T05:13:53;9.68;;;4.47;;
13032;SDS011;6583;42.632;23.298;2023-07-20T05:16:21;8.32;;;3.80;;
13032;SDS011;6583;42.632;23.298;2023-07-20T05:18:47;8.90;;;4.57;;
13032;SDS011;6583;42.632;23.298;2023-07-20T05:21:14;9.35;;;4.22;;
13032;SDS011;6583;42.632;23.298;2023-07-20T05:23:41;10.88;;;4.43;;
13032;SDS011;6583;42.632;23.298;2023-07-20T05:26:07;10.73;;;4.32;;
13032;SDS011;6583;42.632;23.298;2023-07-20T05:28:34;5.78;;;4.35;;
13032;SDS011;6583;42.632;23.298;2023-07-20T05:31:02;9.57;;;5.13;;
13032;SDS011;6583;42.632;23.298;2023-07-20T05:33:30;10.70;;;5.00;;
13032;SDS011;6583;42.632;23.298;2023-07-20T05:35:57;10.15;;;4.85;;
13032;SDS011;6583;42.632;23.298;2023-07-20T05:38:24;10.65;;;4.57;;
13032;SDS011;6583;42.632;23.298;2023-07-20T05:40:50;9.45;;;4.80;;
13032;SDS011;6583;42.632;23.298;2023-07-20T05:43:17;8.70;;;4.35;;
13032;SDS011;6583;42.632;23.298;2023-07-20T05:45:43;7.80;;;4.50;;
13032;SDS011;6583;42.632;23.298;2023-07-20T05:48:11;10.30;;;4.53;;
13032;SDS011;6583;42.632;23.298;2023-07-20T05:50:41;10.38;;;4.45;;
13032;SDS011;6583;42.632;23.298;2023-07-20T05:53:08;9.23;;;4.43;;
13032;SDS011;6583;42.632;23.298;2023-07-20T05:55:34;8.20;;;4.72;;
13032;SDS011;6583;42.632;23.298;2023-07-20T05:58:01;10.55;;;3.92;;
13032;SDS011;6583;42.632;23.298;2023-07-20T06:00:29;9.88;;;4.15;;
13032;SDS011;6583;42.632;23.298;2023-07-20T06:02:56;9.60;;;4.60;;
13032;SDS011;6583;42.632;23.298;2023-07-20T06:05:22;8.02;;;4.32;;
13032;SDS011;6583;42.632;23.298;2023-07-20T06:07:51;9.10;;;4.53;;
13032;SDS011;6583;42.632;23.298;2023-07-20T06:10:17;12.50;;;5.00;;
13032;SDS011;6583;42.632;23.298;2023-07-20T06:12:44;7.75;;;4.40;;
13032;SDS011;6583;42.632;23.298;2023-07-20T06:15:24;10.32;;;4.97;;
13032;SDS011;6583;42.632;23.298;2023-07-20T06:17:51;9.25;;;4.28;;
13032;SDS011;6583;42.632;23.298;2023-07-20T06:20:18;9.10;;;4.05;;
13032;SDS011;6583;42.632;23.298;2023-07-20T06:22:44;6.90;;;3.75;;
13032;SDS011;6583;42.632;23.298;2023-07-20T06:25:14;8.23;;;4.63;;
13032;SDS011;6583;42.632;23.298;2023-07-20T06:27:41;9.95;;;4.15;;
13032;SDS011;6583;42.632;23.298;2023-07-20T06:30:09;9.95;;;4.20;;
13032;SDS011;6583;42.632;23.298;2023-07-20T06:32:37;9.73;;;4.22;;
13032;SDS011;6583;42.632;23.298;2023-07-20T06:35:05;10.05;;;4.20;;
13032;SDS011;6583;42.632;23.298;2023-07-20T06:37:33;8.02;;;4.15;;
13032;SDS011;6583;42.632;23.298;2023-07-20T06:40:00;9.25;;;4.40;;
13032;SDS011;6583;42.632;23.298;2023-07-20T06:42:28;9.68;;;4.10;;
13032;SDS011;6583;42.632;23.298;2023-07-20T06:44:56;6.78;;;4.20;;
13032;SDS011;6583;42.632;23.298;2023-07-20T06:47:22;7.10;;;4.18;;
13032;SDS011;6583;42.632;23.298;2023-07-20T06:49:49;11.15;;;4.30;;
13032;SDS011;6583;42.632;23.298;2023-07-20T06:52:16;10.52;;;3.90;;
13032;SDS011;6583;42.632;23.298;2023-07-20T06:54:42;8.40;;;4.18;;
13032;SDS011;6583;42.632;23.298;2023-07-20T06:57:09;7.75;;;3.75;;
13032;SDS011;6583;42.632;23.298;2023-07-20T06:59:37;7.82;;;4.28;;
13032;SDS011;6583;42.632;23.298;2023-07-20T07:02:04;8.20;;;3.95;;
13032;SDS011;6583;42.632;23.298;2023-07-20T07:04:31;9.07;;;3.53;;
13032;SDS011;6583;42.632;23.298;2023-07-20T07:06:58;9.30;;;4.40;;
13032;SDS011;6583;42.632;23.298;2023-07-20T07:09:25;9.82;;;3.83;;
13032;SDS011;6583;42.632;23.298;2023-07-20T07:11:52;7.53;;;4.22;;
13032;SDS011;6583;42.632;23.298;2023-07-20T07:14:19;9.23;;;4.00;;
13032;SDS011;6583;42.632;23.298;2023-07-20T07:16:48;8.38;;;4.18;;
13032;SDS011;6583;42.632;23.298;2023-07-20T07:19:15;5.95;;;4.03;;
13032;SDS011;6583;42.632;23.298;2023-07-20T07:21:41;9.15;;;4.25;;
13032;SDS011;6583;42.632;23.298;2023-07-20T07:24:08;11.65;;;4.78;;
13032;SDS011;6583;42.632;23.298;2023-07-20T07:26:35;9.93;;;4.50;;
13032;SDS011;6583;42.632;23.298;2023-07-20T07:29:02;13.30;;;4.40;;
13032;SDS011;6583;42.632;23.298;2023-07-20T07:31:29;10.85;;;4.93;;
13032;SDS011;6583;42.632;23.298;2023-07-20T07:33:57;9.07;;;4.50;;
13032;SDS011;6583;42.632;23.298;2023-07-20T07:36:24;9.95;;;4.20;;
13032;SDS011;6583;42.632;23.298;2023-07-20T07:38:50;7.85;;;4.60;;
13032;SDS011;6583;42.632;23.298;2023-07-20T07:41:17;7.50;;;4.60;;
13032;SDS011;6583;42.632;23.298;2023-07-20T07:43:43;9.00;;;4.88;;
13032;SDS011;6583;42.632;23.298;2023-07-20T07:46:10;10.07;;;5.00;;
13032;SDS011;6583;42.632;23.298;2023-07-20T07:48:37;7.80;;;4.57;;
13032;SDS011;6583;42.632;23.298;2023-07-20T07:51:05;10.13;;;4.93;;
13032;SDS011;6583;42.632;23.298;2023-07-20T07:53:32;10.65;;;6.10;;
13032;SDS011;6583;42.632;23.298;2023-07-20T07:56:00;10.15;;;5.20;;
13032;SDS011;6583;42.632;23.298;2023-07-20T07:58:28;7.88;;;5.07;;
13032;SDS011;6583;42.632;23.298;2023-07-20T08:00:54;11.57;;;5.30;;
13032;SDS011;6583;42.632;23.298;2023-07-20T08:03:21;8.93;;;5.28;;
13032;SDS011;6583;42.632;23.298;2023-07-20T08:05:49;11.18;;;5.60;;
13032;SDS011;6583;42.632;23.298;2023-07-20T08:08:17;10.65;;;5.35;;
13032;SDS011;6583;42.632;23.298;2023-07-20T08:10:44;11.60;;;5.70;;
13032;SDS011;6583;42.632;23.298;2023-07-20T08:13:10;12.90;;;5.30;;
13032;SDS011;6583;42.632;23.298;2023-07-20T08:15:37;9.95;;;4.78;;
13032;SDS011;6583;42.632;23.298;2023-07-20T08:18:04;9.70;;;4.80;;
13032;SDS011;6583;42.632;23.298;2023-07-20T08:20:30;8.65;;;4.60;;
13032;SDS011;6583;42.632;23.298;2023-07-20T08:22:57;10.40;;;4.38;;
13032;SDS011;6583;42.632;23.298;2023-07-20T08:25:26;7.47;;;4.50;;
13032;SDS011;6583;42.632;23.298;2023-07-20T08:27:52;7.30;;;3.90;;
13032;SDS011;6583;42.632;23.298;2023-07-20T08:30:20;6.55;;;3.42;;
13032;SDS011;6583;42.632;23.298;2023-07-20T08:32:47;8.05;;;3.63;;
13032;SDS011;6583;42.632;23.298;2023-07-20T08:35:14;5.93;;;3.40;;
13032;SDS011;6583;42.632;23.298;2023-07-20T08:37:41;7.05;;;3.50;;
13032;SDS011;6583;42.632;23.298;2023-07-20T08:40:08;6.45;;;3.20;;
13032;SDS011;6583;42.632;23.298;2023-07-20T08:42:37;5.85;;;2.90;;
13032;SDS011;6583;42.632;23.298;2023-07-20T08:45:06;9.57;;;3.65;;
13032;SDS011;6583;42.632;23.298;2023-07-20T08:47:34;8.52;;;3.33;;
13032;SDS011;6583;42.632;23.298;2023-07-20T08:50:02;5.53;;;3.38;;
13032;SDS011;6583;42.632;23.298;2023-07-20T08:52:31;6.88;;;3.10;;
13032;SDS011;6583;42.632;23.298;2023-07-20T08:55:00;8.65;;;3.53;;
13032;SDS011;6583;42.632;23.298;2023-07-20T08:57:29;6.25;;;3.15;;
13032;SDS011;6583;42.632;23.298;2023-07-20T09:00:00;7.75;;;3.33;;
13032;SDS011;6583;42.632;23.298;2023-07-20T09:02:31;6.28;;;3.10;;
13032;SDS011;6583;42.632;23.298;2023-07-20T09:05:01;7.82;;;2.92;;
13032;SDS011;6583;42.632;23.298;2023-07-20T09:07:29;4.55;;;2.75;;
13032;SDS011;6583;42.632;23.298;2023-07-20T09:09:57;9.80;;;2.88;;
13032;SDS011;6583;42.632;23.298;2023-07-20T09:12:23;8.10;;;3.30;;
13032;SDS011;6583;42.632;23.298;2023-07-20T09:14:52;6.60;;;3.10;;
13032;SDS011;6583;42.632;23.298;2023-07-20T09:17:20;6.68;;;3.00;;
13032;SDS011;6583;42.632;23.298;2023-07-20T09:19:46;7.47;;;3.60;;
13032;SDS011;6583;42.632;23.298;2023-07-20T09:22:13;7.22;;;3.20;;
13032;SDS011;6583;42.632;23.298;2023-07-20T09:24:40;7.32;;;2.90;;
13032;SDS011;6583;42.632;23.298;2023-07-20T09:27:07;7.90;;;3.00;;
13032;SDS011;6583;42.632;23.298;2023-07-20T09:29:39;8.00;;;2.78;;
13032;SDS011;6583;42.632;23.298;2023-07-20T09:32:14;4.35;;;2.72;;
13032;SDS011;6583;42.632;23.298;2023-07-20T09:34:46;5.28;;;2.67;;
13032;SDS011;6583;42.632;23.298;2023-07-20T09:37:13;7.40;;;3.00;;
13032;SDS011;6583;42.632;23.298;2023-07-20T09:39:43;6.30;;;2.90;;
13032;SDS011;6583;42.632;23.298;2023-07-20T09:42:10;7.32;;;3.25;;
13032;SDS011;6583;42.632;23.298;2023-07-20T09:44:38;11.60;;;3.67;;
13032;SDS011;6583;42.632;23.298;2023-07-20T09:47:04;10.15;;;3.25;;
13032;SDS011;6583;42.632;23.298;2023-07-20T09:49:37;13.15;;;3.75;;
13032;SDS011;6583;42.632;23.298;2023-07-20T09:52:06;5.65;;;3.08;;
13032;SDS011;6583;42.632;23.298;2023-07-20T09:54:33;6.65;;;2.75;;
13032;SDS011;6583;42.632;23.298;2023-07-20T09:57:00;11.13;;;3.10;;
13032;SDS011;6583;42.632;23.298;2023-07-20T09:59:33;6.15;;;3.15;;
13032;SDS011;6583;42.632;23.298;2023-07-20T10:01:59;7.07;;;3.00;;
13032;SDS011;6583;42.632;23.298;2023-07-20T10:04:28;6.43;;;2.80;;
13032;SDS011;6583;42.632;23.298;2023-07-20T10:06:57;6.10;;;3.00;;
13032;SDS011;6583;42.632;23.298;2023-07-20T10:09:29;6.55;;;3.15;;
13032;SDS011;6583;42.632;23.298;2023-07-20T10:11:57;8.07;;;2.97;;
13032;SDS011;6583;42.632;23.298;2023-07-20T10:14:26;5.13;;;2.80;;
13032;SDS011;6583;42.632;23.298;2023-07-20T10:16:57;5.88;;;2.88;;
13032;SDS011;6583;42.632;23.298;2023-07-20T10:19:29;5.50;;;2.90;;
13032;SDS011;6583;42.632;23.298;2023-07-20T10:22:07;6.88;;;3.42;;
13032;SDS011;6583;42.632;23.298;2023-07-20T10:24:40;5.78;;;2.55;;
13032;SDS011;6583;42.632;23.298;2023-07-20T10:27:12;4.60;;;2.70;;
13032;SDS011;6583;42.632;23.298;2023-07-20T10:29:39;6.63;;;2.90;;
13032;SDS011;6583;42.632;23.298;2023-07-20T10:32:07;5.32;;;2.70;;
13032;SDS011;6583;42.632;23.298;2023-07-20T10:34:35;6.80;;;2.55;;
13032;SDS011;6583;42.632;23.298;2023-07-20T10:37:02;6.38;;;2.65;;
13032;SDS011;6583;42.632;23.298;2023-07-20T10:39:31;5.05;;;2.42;;
13032;SDS011;6583;42.632;23.298;2023-07-20T10:42:01;5.80;;;2.90;;
13032;SDS011;6583;42.632;23.298;2023-07-20T10:44:30;4.05;;;2.80;;
13032;SDS011;6583;42.632;23.298;2023-07-20T10:47:00;7.75;;;3.50;;
13032;SDS011;6583;42.632;23.298;2023-07-20T10:49:28;5.68;;;3.28;;
13032;SDS011;6583;42.632;23.298;2023-07-20T10:51:56;16.45;;;5.03;;
13032;SDS011;6583;42.632;23.298;2023-07-20T10:54:35;8.45;;;4.80;;
13032;SDS011;6583;42.632;23.298;2023-07-20T10:57:23;7.15;;;4.43;;
13032;SDS011;6583;42.632;23.298;2023-07-20T10:59:56;10.30;;;5.68;;
13032;SDS011;6583;42.632;23.298;2023-07-20T11:02:41;10.07;;;5.72;;
13032;SDS011;6583;42.632;23.298;2023-07-20T11:05:08;12.68;;;6.57;;
13032;SDS011;6583;42.632;23.298;2023-07-20T11:08:05;13.57;;;6.65;;
13032;SDS011;6583;42.632;23.298;2023-07-20T11:10:36;10.68;;;6.25;;
13032;SDS011;6583;42.632;23.298;2023-07-20T11:16:01;8.98;;;6.28;;
13032;SDS011;6583;42.632;23.298;2023-07-20T11:18:30;11.55;;;6.63;;
13032;SDS011;6583;42.632;23.298;2023-07-20T11:21:00;7.85;;;6.65;;
13032;SDS011;6583;42.632;23.298;2023-07-20T11:23:27;7.78;;;6.90;;
13032;SDS011;6583;42.632;23.298;2023-07-20T11:25:57;11.30;;;6.43;;
13032;SDS011;6583;42.632;23.298;2023-07-20T11:28:25;8.43;;;6.68;;
13032;SDS011;6583;42.632;23.298;2023-07-20T11:30:52;7.63;;;6.93;;
13032;SDS011;6583;42.632;23.298;2023-07-20T11:33:19;10.38;;;7.15;;
13032;SDS011;6583;42.632;23.298;2023-07-20T11:35:46;9.38;;;7.47;;
13032;SDS011;6583;42.632;23.298;2023-07-20T11:38:16;7.32;;;6.53;;
13032;SDS011;6583;42.632;23.298;2023-07-20T11:40:43;9.48;;;6.75;;
13032;SDS011;6583;42.632;23.298;2023-07-20T11:43:12;10.25;;;6.93;;
13032;SDS011;6583;42.632;23.298;2023-07-20T11:45:39;9.07;;;7.03;;
13032;SDS011;6583;42.632;23.298;2023-07-20T11:48:06;7.63;;;6.60;;
13032;SDS011;6583;42.632;23.298;2023-07-20T11:50:38;10.18;;;6.78;;
13032;SDS011;6583;42.632;23.298;2023-07-20T11:53:06;10.77;;;6.03;;
13032;SDS011;6583;42.632;23.298;2023-07-20T11:55:33;7.47;;;5.68;;
13032;SDS011;6583;42.632;23.298;2023-07-20T11:58:03;7.88;;;5.80;;
13032;SDS011;6583;42.632;23.298;2023-07-20T12:00:31;11.18;;;5.70;;
13032;SDS011;6583;42.632;23.298;2023-07-20T12:02:59;9.02;;;6.15;;
13032;SDS011;6583;42.632;23.298;2023-07-20T12:05:26;9.60;;;6.18;;
13032;SDS011;6583;42.632;23.298;2023-07-20T12:07:52;6.53;;;5.43;;
13032;SDS011;6583;42.632;23.298;2023-07-20T12:10:23;7.82;;;5.82;;
13032;SDS011;6583;42.632;23.298;2023-07-20T12:12:51;8.63;;;5.72;;
13032;SDS011;6583;42.632;23.298;2023-07-20T12:15:20;9.75;;;5.63;;
13032;SDS011;6583;42.632;23.298;2023-07-20T12:17:51;8.30;;;5.78;;
13032;SDS011;6583;42.632;23.298;2023-07-20T12:20:24;8.00;;;5.50;;
13032;SDS011;6583;42.632;23.298;2023-07-20T12:22:52;11.85;;;5.43;;
13032;SDS011;6583;42.632;23.298;2023-07-20T12:25:22;10.55;;;4.93;;
13032;SDS011;6583;42.632;23.298;2023-07-20T12:27:48;11.20;;;4.95;;
13032;SDS011;6583;42.632;23.298;2023-07-20T12:30:15;16.75;;;4.75;;
13032;SDS011;6583;42.632;23.298;2023-07-20T12:32:42;10.60;;;4.25;;
13032;SDS011;6583;42.632;23.298;2023-07-20T12:35:10;18.90;;;5.18;;
13032;SDS011;6583;42.632;23.298;2023-07-20T12:37:39;7.68;;;4.70;;
13032;SDS011;6583;42.632;23.298;2023-07-20T12:40:06;9.10;;;4.00;;
13032;SDS011;6583;42.632;23.298;2023-07-20T12:42:35;10.02;;;3.85;;
13032;SDS011;6583;42.632;23.298;2023-07-20T12:45:06;7.75;;;4.10;;
13032;SDS011;6583;42.632;23.298;2023-07-20T12:47:33;6.55;;;4.40;;
13032;SDS011;6583;42.632;23.298;2023-07-20T12:50:00;6.05;;;3.80;;
13032;SDS011;6583;42.632;23.298;2023-07-20T12:52:28;8.32;;;4.05;;
13032;SDS011;6583;42.632;23.298;2023-07-20T12:54:54;8.77;;;3.60;;
13032;SDS011;6583;42.632;23.298;2023-07-20T12:57:22;10.50;;;4.00;;
13032;SDS011;6583;42.632;23.298;2023-07-20T12:59:48;7.82;;;4.28;;
13032;SDS011;6583;42.632;23.298;2023-07-20T13:02:15;6.60;;;3.65;;
13032;SDS011;6583;42.632;23.298;2023-07-20T13:04:42;5.88;;;3.42;;
13032;SDS011;6583;42.632;23.298;2023-07-20T13:07:09;7.45;;;3.65;;
13032;SDS011;6583;42.632;23.298;2023-07-20T13:09:38;7.03;;;3.65;;
13032;SDS011;6583;42.632;23.298;2023-07-20T13:12:05;6.88;;;3.20;;
13032;SDS011;6583;42.632;23.298;2023-07-20T13:14:33;7.80;;;3.80;;
13032;SDS011;6583;42.632;23.298;2023-07-20T13:16:59;8.95;;;3.55;;
13032;SDS011;6583;42.632;23.298;2023-07-20T13:19:26;20.63;;;4.20;;
13032;SDS011;6583;42.632;23.298;2023-07-20T13:21:53;8.35;;;3.58;;
13032;SDS011;6583;42.632;23.298;2023-07-20T13:24:19;12.80;;;4.30;;
13032;SDS011;6583;42.632;23.298;2023-07-20T13:26:47;9.38;;;3.92;;
13032;SDS011;6583;42.632;23.298;2023-07-20T13:29:14;41.30;;;6.50;;
13032;SDS011;6583;42.632;23.298;2023-07-20T13:31:41;8.73;;;3.80;;
13032;SDS011;6583;42.632;23.298;2023-07-20T13:34:07;8.88;;;3.47;;
13032;SDS011;6583;42.632;23.298;2023-07-20T13:36:34;7.50;;;3.58;;
13032;SDS011;6583;42.632;23.298;2023-07-20T13:39:00;7.45;;;4.00;;
13032;SDS011;6583;42.632;23.298;2023-07-20T13:41:29;7.45;;;3.35;;
13032;SDS011;6583;42.632;23.298;2023-07-20T13:43:58;9.18;;;3.50;;
13032;SDS011;6583;42.632;23.298;2023-07-20T13:46:25;9.07;;;3.22;;
13032;SDS011;6583;42.632;23.298;2023-07-20T13:48:51;6.63;;;3.10;;
13032;SDS011;6583;42.632;23.298;2023-07-20T13:51:18;5.90;;;3.20;;
13032;SDS011;6583;42.632;23.298;2023-07-20T13:53:45;5.68;;;3.20;;
13032;SDS011;6583;42.632;23.298;2023-07-20T13:56:13;11.95;;;3.22;;
13032;SDS011;6583;42.632;23.298;2023-07-20T13:58:40;8.02;;;2.95;;
13032;SDS011;6583;42.632;23.298;2023-07-20T14:01:08;9.85;;;2.97;;
13032;SDS011;6583;42.632;23.298;2023-07-20T14:03:35;6.72;;;3.15;;
13032;SDS011;6583;42.632;23.298;2023-07-20T14:06:02;6.10;;;3.38;;
13032;SDS011;6583;42.632;23.298;2023-07-20T14:08:29;7.82;;;3.83;;
13032;SDS011;6583;42.632;23.298;2023-07-20T14:10:56;8.02;;;3.70;;
13032;SDS011;6583;42.632;23.298;2023-07-20T14:13:22;9.20;;;3.10;;
13032;SDS011;6583;42.632;23.298;2023-07-20T14:15:50;6.63;;;2.90;;
13032;SDS011;6583;42.632;23.298;2023-07-20T14:18:18;8.82;;;2.88;;
13032;SDS011;6583;42.632;23.298;2023-07-20T14:20:45;6.20;;;2.83;;
13032;SDS011;6583;42.632;23.298;2023-07-20T14:23:11;4.43;;;2.70;;
13032;SDS011;6583;42.632;23.298;2023-07-20T14:25:38;6.18;;;2.67;;
13032;SDS011;6583;42.632;23.298;2023-07-20T14:28:05;7.15;;;2.75;;
13032;SDS011;6583;42.632;23.298;2023-07-20T14:30:32;7.63;;;2.90;;
13032;SDS011;6583;42.632;23.298;2023-07-20T14:32:58;5.22;;;3.10;;
13032;SDS011;6583;42.632;23.298;2023-07-20T14:35:27;5.13;;;3.10;;
13032;SDS011;6583;42.632;23.298;2023-07-20T14:37:53;4.60;;;2.95;;
13032;SDS011;6583;42.632;23.298;2023-07-20T14:40:20;4.90;;;2.35;;
13032;SDS011;6583;42.632;23.298;2023-07-20T14:42:47;5.32;;;2.92;;
13032;SDS011;6583;42.632;23.298;2023-07-20T14:45:13;6.95;;;2.78;;
13032;SDS011;6583;42.632;23.298;2023-07-20T14:47:40;5.50;;;3.20;;
13032;SDS011;6583;42.632;23.298;2023-07-20T14:50:08;7.72;;;2.97;;
13032;SDS011;6583;42.632;23.298;2023-07-20T14:52:37;4.18;;;2.78;;
13032;SDS011;6583;42.632;23.298;2023-07-20T14:55:04;8.25;;;3.03;;
13032;SDS011;6583;42.632;23.298;2023-07-20T14:57:31;6.45;;;2.83;;